sensor_id;sensor_type;location;lat;lon;timestamp;P1;durP1;ratioP1;P2;durP2;ratioP2
5133;SDS011;2585;48.696;10.066;2022-08-01T00:00:05;2.50;;;2.20;;
5133;SDS011;2585;48.696;10.066;2022-08-01T00:02:35;4.20;;;2.70;;
5133;SDS011;2585;48.696;10.066;2022-08-01T00:05:05;5.70;;;3.00;;
5133;SDS011;2585;48.696;10.066;2022-08-01T00:07:33;3.30;;;2.90;;
5133;SDS011;2585;48.696;10.066;2022-08-01T00:10:02;4.70;;;3.00;;
5133;SDS011;2585;48.696;10.066;2022-08-01T00:12:30;3.00;;;2.70;;
5133;SDS011;2585;48.696;10.066;2022-08-01T00:14:56;3.27;;;2.97;;
5133;SDS011;2585;48.696;10.066;2022-08-01T00:17:23;4.90;;;2.93;;
5133;SDS011;2585;48.696;10.066;2022-08-01T00:19:50;4.73;;;2.77;;
5133;SDS011;2585;48.696;10.066;2022-08-01T00:22:17;5.17;;;2.93;;
5133;SDS011;2585;48.696;10.066;2022-08-01T00:24:44;4.90;;;2.73;;
5133;SDS011;2585;48.696;10.066;2022-08-01T00:27:11;3.90;;;3.27;;
5133;SDS011;2585;48.696;10.066;2022-08-01T00:29:37;5.90;;;2.60;;
5133;SDS011;2585;48.696;10.066;2022-08-01T00:32:24;3.10;;;2.80;;
5133;SDS011;2585;48.696;10.066;2022-08-01T00:34:51;3.10;;;2.90;;
5133;SDS011;2585;48.696;10.066;2022-08-01T00:37:18;3.30;;;3.00;;
5133;SDS011;2585;48.696;10.066;2022-08-01T00:39:45;3.23;;;2.93;;
5133;SDS011;2585;48.696;10.066;2022-08-01T00:42:12;3.20;;;2.83;;
5133;SDS011;2585;48.696;10.066;2022-08-01T00:44:39;2.63;;;2.43;;
5133;SDS011;2585;48.696;10.066;2022-08-01T00:47:06;2.50;;;2.30;;
5133;SDS011;2585;48.696;10.066;2022-08-01T00:49:34;5.00;;;2.80;;
5133;SDS011;2585;48.696;10.066;2022-08-01T00:52:02;3.43;;;2.90;;
5133;SDS011;2585;48.696;10.066;2022-08-01T00:54:31;4.50;;;2.90;;
5133;SDS011;2585;48.696;10.066;2022-08-01T00:56:59;4.10;;;2.60;;
5133;SDS011;2585;48.696;10.066;2022-08-01T00:59:26;5.50;;;2.80;;
5133;SDS011;2585;48.696;10.066;2022-08-01T01:01:53;3.17;;;2.50;;
5133;SDS011;2585;48.696;10.066;2022-08-01T01:04:21;3.70;;;3.03;;
5133;SDS011;2585;48.696;10.066;2022-08-01T01:06:48;3.47;;;3.00;;
5133;SDS011;2585;48.696;10.066;2022-08-01T01:12:29;2.80;;;2.57;;
5133;SDS011;2585;48.696;10.066;2022-08-01T01:15:21;3.10;;;2.80;;
5133;SDS011;2585;48.696;10.066;2022-08-01T01:17:55;3.23;;;2.90;;
5133;SDS011;2585;48.696;10.066;2022-08-01T01:20:28;4.07;;;2.63;;
5133;SDS011;2585;48.696;10.066;2022-08-01T01:23:06;4.83;;;2.70;;
5133;SDS011;2585;48.696;10.066;2022-08-01T01:28:15;3.47;;;3.17;;
5133;SDS011;2585;48.696;10.066;2022-08-01T01:31:10;4.13;;;2.90;;
5133;SDS011;2585;48.696;10.066;2022-08-01T01:33:39;4.87;;;3.23;;
5133;SDS011;2585;48.696;10.066;2022-08-01T01:36:12;3.80;;;2.90;;
5133;SDS011;2585;48.696;10.066;2022-08-01T01:38:41;3.43;;;3.13;;
5133;SDS011;2585;48.696;10.066;2022-08-01T01:41:11;3.70;;;3.20;;
5133;SDS011;2585;48.696;10.066;2022-08-01T01:43:39;4.50;;;3.47;;
5133;SDS011;2585;48.696;10.066;2022-08-01T01:46:07;4.43;;;3.30;;
5133;SDS011;2585;48.696;10.066;2022-08-01T01:48:35;4.00;;;3.30;;
5133;SDS011;2585;48.696;10.066;2022-08-01T01:51:04;3.20;;;3.00;;
5133;SDS011;2585;48.696;10.066;2022-08-01T01:53:33;2.90;;;2.60;;
5133;SDS011;2585;48.696;10.066;2022-08-01T01:56:02;3.30;;;3.00;;
5133;SDS011;2585;48.696;10.066;2022-08-01T01:58:30;3.60;;;3.10;;
5133;SDS011;2585;48.696;10.066;2022-08-01T02:01:00;3.33;;;3.03;;
5133;SDS011;2585;48.696;10.066;2022-08-01T02:03:29;9.37;;;3.20;;
5133;SDS011;2585;48.696;10.066;2022-08-01T02:05:57;4.67;;;3.20;;
5133;SDS011;2585;48.696;10.066;2022-08-01T02:08:25;3.13;;;2.83;;
5133;SDS011;2585;48.696;10.066;2022-08-01T02:10:57;4.20;;;3.50;;
5133;SDS011;2585;48.696;10.066;2022-08-01T02:13:43;3.60;;;3.00;;
5133;SDS011;2585;48.696;10.066;2022-08-01T02:16:18;5.50;;;3.50;;
5133;SDS011;2585;48.696;10.066;2022-08-01T02:18:47;4.00;;;3.17;;
5133;SDS011;2585;48.696;10.066;2022-08-01T02:21:16;3.80;;;3.00;;
5133;SDS011;2585;48.696;10.066;2022-08-01T02:24:10;5.17;;;2.90;;
5133;SDS011;2585;48.696;10.066;2022-08-01T02:26:58;7.03;;;3.40;;
5133;SDS011;2585;48.696;10.066;2022-08-01T02:29:34;3.27;;;2.97;;
5133;SDS011;2585;48.696;10.066;2022-08-01T02:32:10;4.93;;;3.60;;
5133;SDS011;2585;48.696;10.066;2022-08-01T02:34:41;4.20;;;3.10;;
5133;SDS011;2585;48.696;10.066;2022-08-01T02:37:12;3.20;;;2.50;;
5133;SDS011;2585;48.696;10.066;2022-08-01T02:39:41;4.40;;;3.30;;
5133;SDS011;2585;48.696;10.066;2022-08-01T02:42:09;6.23;;;3.70;;
5133;SDS011;2585;48.696;10.066;2022-08-01T02:44:39;4.40;;;3.53;;
5133;SDS011;2585;48.696;10.066;2022-08-01T02:47:08;2.80;;;2.60;;
5133;SDS011;2585;48.696;10.066;2022-08-01T02:49:37;3.33;;;3.00;;
5133;SDS011;2585;48.696;10.066;2022-08-01T02:52:19;4.50;;;2.67;;
5133;SDS011;2585;48.696;10.066;2022-08-01T02:54:48;2.93;;;2.73;;
5133;SDS011;2585;48.696;10.066;2022-08-01T02:57:17;4.00;;;2.90;;
5133;SDS011;2585;48.696;10.066;2022-08-01T02:59:46;4.40;;;3.20;;
5133;SDS011;2585;48.696;10.066;2022-08-01T03:02:15;4.10;;;2.80;;
5133;SDS011;2585;48.696;10.066;2022-08-01T03:04:43;3.93;;;2.87;;
5133;SDS011;2585;48.696;10.066;2022-08-01T03:07:11;2.90;;;2.60;;
5133;SDS011;2585;48.696;10.066;2022-08-01T03:09:40;4.97;;;3.20;;
5133;SDS011;2585;48.696;10.066;2022-08-01T03:12:20;3.10;;;2.80;;
5133;SDS011;2585;48.696;10.066;2022-08-01T03:14:52;2.40;;;2.20;;
5133;SDS011;2585;48.696;10.066;2022-08-01T03:17:21;3.33;;;3.03;;
5133;SDS011;2585;48.696;10.066;2022-08-01T03:19:51;4.40;;;3.00;;
5133;SDS011;2585;48.696;10.066;2022-08-01T03:22:20;5.10;;;3.20;;
5133;SDS011;2585;48.696;10.066;2022-08-01T03:24:49;6.23;;;3.20;;
5133;SDS011;2585;48.696;10.066;2022-08-01T03:27:19;5.00;;;3.23;;
5133;SDS011;2585;48.696;10.066;2022-08-01T03:29:48;2.67;;;2.47;;
5133;SDS011;2585;48.696;10.066;2022-08-01T03:32:17;3.47;;;3.17;;
5133;SDS011;2585;48.696;10.066;2022-08-01T03:34:47;3.40;;;3.10;;
5133;SDS011;2585;48.696;10.066;2022-08-01T03:37:21;4.00;;;2.90;;
5133;SDS011;2585;48.696;10.066;2022-08-01T03:40:07;3.87;;;3.40;;
5133;SDS011;2585;48.696;10.066;2022-08-01T03:42:47;3.60;;;3.20;;
5133;SDS011;2585;48.696;10.066;2022-08-01T03:45:21;3.97;;;3.37;;
5133;SDS011;2585;48.696;10.066;2022-08-01T03:47:52;4.93;;;3.40;;
5133;SDS011;2585;48.696;10.066;2022-08-01T03:50:24;7.30;;;3.20;;
5133;SDS011;2585;48.696;10.066;2022-08-01T03:52:53;3.53;;;2.80;;
5133;SDS011;2585;48.696;10.066;2022-08-01T03:55:23;3.60;;;3.27;;
5133;SDS011;2585;48.696;10.066;2022-08-01T03:57:51;6.03;;;3.20;;
5133;SDS011;2585;48.696;10.066;2022-08-01T04:00:18;3.40;;;2.90;;
5133;SDS011;2585;48.696;10.066;2022-08-01T04:02:46;3.83;;;2.90;;
5133;SDS011;2585;48.696;10.066;2022-08-01T04:05:15;3.73;;;3.43;;
5133;SDS011;2585;48.696;10.066;2022-08-01T04:07:46;4.70;;;3.10;;
5133;SDS011;2585;48.696;10.066;2022-08-01T04:10:16;4.40;;;3.27;;
5133;SDS011;2585;48.696;10.066;2022-08-01T04:12:43;3.40;;;2.80;;
5133;SDS011;2585;48.696;10.066;2022-08-01T04:15:10;4.20;;;3.40;;
5133;SDS011;2585;48.696;10.066;2022-08-01T04:17:36;3.40;;;3.10;;
5133;SDS011;2585;48.696;10.066;2022-08-01T04:20:03;4.60;;;3.37;;
5133;SDS011;2585;48.696;10.066;2022-08-01T04:22:31;3.13;;;2.73;;
5133;SDS011;2585;48.696;10.066;2022-08-01T04:25:04;4.80;;;3.30;;
5133;SDS011;2585;48.696;10.066;2022-08-01T04:27:36;4.47;;;2.73;;
5133;SDS011;2585;48.696;10.066;2022-08-01T04:30:17;4.00;;;3.30;;
5133;SDS011;2585;48.696;10.066;2022-08-01T04:33:04;3.90;;;2.90;;
5133;SDS011;2585;48.696;10.066;2022-08-01T04:35:34;6.00;;;3.13;;
5133;SDS011;2585;48.696;10.066;2022-08-01T04:38:22;3.60;;;3.30;;
5133;SDS011;2585;48.696;10.066;2022-08-01T04:40:53;4.27;;;3.30;;
5133;SDS011;2585;48.696;10.066;2022-08-01T04:43:20;4.23;;;3.70;;
5133;SDS011;2585;48.696;10.066;2022-08-01T04:45:49;4.40;;;3.50;;
5133;SDS011;2585;48.696;10.066;2022-08-01T04:48:17;3.83;;;3.33;;
5133;SDS011;2585;48.696;10.066;2022-08-01T04:50:48;10.00;;;3.67;;
5133;SDS011;2585;48.696;10.066;2022-08-01T04:53:15;4.00;;;3.23;;
5133;SDS011;2585;48.696;10.066;2022-08-01T04:55:44;5.03;;;3.60;;
5133;SDS011;2585;48.696;10.066;2022-08-01T04:58:12;7.53;;;3.80;;
5133;SDS011;2585;48.696;10.066;2022-08-01T05:00:44;4.00;;;3.10;;
5133;SDS011;2585;48.696;10.066;2022-08-01T05:03:11;4.60;;;3.20;;
5133;SDS011;2585;48.696;10.066;2022-08-01T05:05:38;3.17;;;2.87;;
5133;SDS011;2585;48.696;10.066;2022-08-01T05:08:05;7.33;;;3.20;;
5133;SDS011;2585;48.696;10.066;2022-08-01T05:10:32;3.60;;;3.30;;
5133;SDS011;2585;48.696;10.066;2022-08-01T05:12:59;3.10;;;2.83;;
5133;SDS011;2585;48.696;10.066;2022-08-01T05:15:26;3.53;;;2.93;;
5133;SDS011;2585;48.696;10.066;2022-08-01T05:17:53;3.37;;;3.07;;
5133;SDS011;2585;48.696;10.066;2022-08-01T05:20:20;3.20;;;2.63;;
5133;SDS011;2585;48.696;10.066;2022-08-01T05:22:47;4.53;;;3.33;;
5133;SDS011;2585;48.696;10.066;2022-08-01T05:25:14;5.73;;;3.27;;
5133;SDS011;2585;48.696;10.066;2022-08-01T05:28:01;3.30;;;3.00;;
5133;SDS011;2585;48.696;10.066;2022-08-01T05:30:28;3.30;;;3.10;;
5133;SDS011;2585;48.696;10.066;2022-08-01T05:32:55;4.07;;;3.67;;
5133;SDS011;2585;48.696;10.066;2022-08-01T05:35:22;3.77;;;3.33;;
5133;SDS011;2585;48.696;10.066;2022-08-01T05:38:09;3.60;;;3.23;;
5133;SDS011;2585;48.696;10.066;2022-08-01T05:40:40;3.50;;;2.97;;
5133;SDS011;2585;48.696;10.066;2022-08-01T05:43:07;3.87;;;3.57;;
5133;SDS011;2585;48.696;10.066;2022-08-01T05:45:33;3.43;;;3.13;;
5133;SDS011;2585;48.696;10.066;2022-08-01T05:48:00;3.60;;;3.20;;
5133;SDS011;2585;48.696;10.066;2022-08-01T05:50:27;3.93;;;3.37;;
5133;SDS011;2585;48.696;10.066;2022-08-01T05:52:54;4.17;;;3.53;;
5133;SDS011;2585;48.696;10.066;2022-08-01T05:55:21;3.40;;;3.10;;
5133;SDS011;2585;48.696;10.066;2022-08-01T05:57:47;4.13;;;3.37;;
5133;SDS011;2585;48.696;10.066;2022-08-01T06:00:14;3.00;;;2.63;;
5133;SDS011;2585;48.696;10.066;2022-08-01T06:02:42;3.70;;;3.23;;
5133;SDS011;2585;48.696;10.066;2022-08-01T06:05:09;6.40;;;2.93;;
5133;SDS011;2585;48.696;10.066;2022-08-01T06:07:38;4.43;;;3.00;;
5133;SDS011;2585;48.696;10.066;2022-08-01T06:10:06;4.93;;;3.23;;
5133;SDS011;2585;48.696;10.066;2022-08-01T06:12:34;3.37;;;3.07;;
5133;SDS011;2585;48.696;10.066;2022-08-01T06:15:01;3.97;;;3.10;;
5133;SDS011;2585;48.696;10.066;2022-08-01T06:17:32;3.60;;;3.10;;
5133;SDS011;2585;48.696;10.066;2022-08-01T06:19:58;5.33;;;3.50;;
5133;SDS011;2585;48.696;10.066;2022-08-01T06:22:26;5.17;;;2.87;;
5133;SDS011;2585;48.696;10.066;2022-08-01T06:24:53;3.63;;;3.10;;
5133;SDS011;2585;48.696;10.066;2022-08-01T06:27:20;3.57;;;3.27;;
5133;SDS011;2585;48.696;10.066;2022-08-01T06:29:48;3.93;;;3.30;;
5133;SDS011;2585;48.696;10.066;2022-08-01T06:32:19;3.67;;;2.90;;
5133;SDS011;2585;48.696;10.066;2022-08-01T06:34:53;6.20;;;3.50;;
5133;SDS011;2585;48.696;10.066;2022-08-01T06:37:20;3.00;;;2.70;;
5133;SDS011;2585;48.696;10.066;2022-08-01T06:39:47;5.60;;;3.20;;
5133;SDS011;2585;48.696;10.066;2022-08-01T06:42:16;4.50;;;2.90;;
5133;SDS011;2585;48.696;10.066;2022-08-01T06:44:44;7.20;;;3.10;;
5133;SDS011;2585;48.696;10.066;2022-08-01T06:47:11;5.27;;;2.90;;
5133;SDS011;2585;48.696;10.066;2022-08-01T06:49:38;5.63;;;3.60;;
5133;SDS011;2585;48.696;10.066;2022-08-01T06:52:05;4.80;;;3.27;;
5133;SDS011;2585;48.696;10.066;2022-08-01T06:54:32;3.27;;;2.80;;
5133;SDS011;2585;48.696;10.066;2022-08-01T06:56:59;2.70;;;2.43;;
5133;SDS011;2585;48.696;10.066;2022-08-01T06:59:26;3.00;;;2.70;;
5133;SDS011;2585;48.696;10.066;2022-08-01T07:01:53;3.27;;;2.53;;
5133;SDS011;2585;48.696;10.066;2022-08-01T07:04:20;3.10;;;2.80;;
5133;SDS011;2585;48.696;10.066;2022-08-01T07:06:47;2.30;;;2.10;;
5133;SDS011;2585;48.696;10.066;2022-08-01T07:09:14;2.80;;;2.53;;
5133;SDS011;2585;48.696;10.066;2022-08-01T07:11:40;3.23;;;2.33;;
5133;SDS011;2585;48.696;10.066;2022-08-01T07:14:07;6.13;;;1.90;;
5133;SDS011;2585;48.696;10.066;2022-08-01T07:16:34;2.43;;;1.90;;
5133;SDS011;2585;48.696;10.066;2022-08-01T07:19:01;3.63;;;2.00;;
5133;SDS011;2585;48.696;10.066;2022-08-01T07:21:28;2.80;;;2.13;;
5133;SDS011;2585;48.696;10.066;2022-08-01T07:24:06;9.20;;;1.90;;
5133;SDS011;2585;48.696;10.066;2022-08-01T07:26:39;2.73;;;2.30;;
5133;SDS011;2585;48.696;10.066;2022-08-01T07:29:19;2.33;;;2.13;;
5133;SDS011;2585;48.696;10.066;2022-08-01T07:31:50;4.17;;;2.17;;
5133;SDS011;2585;48.696;10.066;2022-08-01T07:34:20;7.50;;;2.20;;
5133;SDS011;2585;48.696;10.066;2022-08-01T07:36:49;2.53;;;2.27;;
5133;SDS011;2585;48.696;10.066;2022-08-01T07:39:16;2.53;;;1.97;;
5133;SDS011;2585;48.696;10.066;2022-08-01T07:41:43;2.50;;;2.13;;
5133;SDS011;2585;48.696;10.066;2022-08-01T07:44:30;2.17;;;1.77;;
5133;SDS011;2585;48.696;10.066;2022-08-01T07:46:57;2.50;;;2.13;;
5133;SDS011;2585;48.696;10.066;2022-08-01T07:49:24;2.67;;;2.10;;
5133;SDS011;2585;48.696;10.066;2022-08-01T07:51:51;5.03;;;1.70;;
5133;SDS011;2585;48.696;10.066;2022-08-01T07:54:30;1.73;;;1.50;;
5133;SDS011;2585;48.696;10.066;2022-08-01T07:56:59;3.93;;;1.43;;
5133;SDS011;2585;48.696;10.066;2022-08-01T07:59:26;1.93;;;1.63;;
5133;SDS011;2585;48.696;10.066;2022-08-01T08:01:53;1.70;;;1.50;;
5133;SDS011;2585;48.696;10.066;2022-08-01T08:04:20;2.80;;;1.63;;
5133;SDS011;2585;48.696;10.066;2022-08-01T08:06:47;2.77;;;1.50;;
5133;SDS011;2585;48.696;10.066;2022-08-01T08:09:15;5.90;;;1.70;;
5133;SDS011;2585;48.696;10.066;2022-08-01T08:11:43;1.90;;;1.70;;
5133;SDS011;2585;48.696;10.066;2022-08-01T08:14:13;6.13;;;1.87;;
5133;SDS011;2585;48.696;10.066;2022-08-01T08:16:43;4.90;;;1.80;;
5133;SDS011;2585;48.696;10.066;2022-08-01T08:19:10;4.80;;;1.80;;
5133;SDS011;2585;48.696;10.066;2022-08-01T08:21:38;5.43;;;2.00;;
5133;SDS011;2585;48.696;10.066;2022-08-01T08:24:05;2.20;;;1.63;;
5133;SDS011;2585;48.696;10.066;2022-08-01T08:26:54;4.27;;;2.07;;
5133;SDS011;2585;48.696;10.066;2022-08-01T08:29:22;3.33;;;1.80;;
5133;SDS011;2585;48.696;10.066;2022-08-01T08:31:51;4.33;;;2.20;;
5133;SDS011;2585;48.696;10.066;2022-08-01T08:34:19;5.70;;;2.10;;
5133;SDS011;2585;48.696;10.066;2022-08-01T08:36:50;2.10;;;1.80;;
5133;SDS011;2585;48.696;10.066;2022-08-01T08:39:17;2.90;;;2.03;;
5133;SDS011;2585;48.696;10.066;2022-08-01T08:41:45;2.60;;;1.73;;
5133;SDS011;2585;48.696;10.066;2022-08-01T08:44:15;1.83;;;1.63;;
5133;SDS011;2585;48.696;10.066;2022-08-01T08:46:46;2.37;;;1.90;;
5133;SDS011;2585;48.696;10.066;2022-08-01T08:49:18;2.93;;;2.20;;
5133;SDS011;2585;48.696;10.066;2022-08-01T08:51:49;2.33;;;1.93;;
5133;SDS011;2585;48.696;10.066;2022-08-01T08:54:18;2.27;;;1.77;;
5133;SDS011;2585;48.696;10.066;2022-08-01T08:56:54;4.20;;;2.00;;
5133;SDS011;2585;48.696;10.066;2022-08-01T08:59:22;1.77;;;1.63;;
5133;SDS011;2585;48.696;10.066;2022-08-01T09:01:52;4.57;;;2.10;;
5133;SDS011;2585;48.696;10.066;2022-08-01T09:04:22;3.60;;;1.60;;
5133;SDS011;2585;48.696;10.066;2022-08-01T09:06:51;2.07;;;1.83;;
5133;SDS011;2585;48.696;10.066;2022-08-01T09:09:19;3.60;;;1.70;;
5133;SDS011;2585;48.696;10.066;2022-08-01T09:11:46;2.60;;;2.00;;
5133;SDS011;2585;48.696;10.066;2022-08-01T09:14:30;2.10;;;1.73;;
5133;SDS011;2585;48.696;10.066;2022-08-01T09:17:04;2.40;;;2.10;;
5133;SDS011;2585;48.696;10.066;2022-08-01T09:19:34;3.00;;;1.80;;
5133;SDS011;2585;48.696;10.066;2022-08-01T09:22:14;2.90;;;1.90;;
5133;SDS011;2585;48.696;10.066;2022-08-01T09:25:01;2.70;;;1.80;;
5133;SDS011;2585;48.696;10.066;2022-08-01T09:27:32;4.03;;;2.30;;
5133;SDS011;2585;48.696;10.066;2022-08-01T09:30:07;2.27;;;1.87;;
5133;SDS011;2585;48.696;10.066;2022-08-01T09:38:15;2.77;;;2.00;;
5133;SDS011;2585;48.696;10.066;2022-08-01T09:40:48;3.13;;;2.47;;
5133;SDS011;2585;48.696;10.066;2022-08-01T09:43:22;2.00;;;1.70;;
5133;SDS011;2585;48.696;10.066;2022-08-01T09:45:50;2.10;;;1.90;;
5133;SDS011;2585;48.696;10.066;2022-08-01T09:48:19;2.80;;;1.90;;
5133;SDS011;2585;48.696;10.066;2022-08-01T09:50:53;5.13;;;2.13;;
5133;SDS011;2585;48.696;10.066;2022-08-01T09:53:20;3.83;;;2.53;;
5133;SDS011;2585;48.696;10.066;2022-08-01T09:56:07;2.53;;;2.13;;
5133;SDS011;2585;48.696;10.066;2022-08-01T09:58:54;2.70;;;1.80;;
5133;SDS011;2585;48.696;10.066;2022-08-01T10:01:27;2.63;;;2.00;;
5133;SDS011;2585;48.696;10.066;2022-08-01T10:04:07;2.63;;;2.43;;
5133;SDS011;2585;48.696;10.066;2022-08-01T10:06:44;6.20;;;2.20;;
5133;SDS011;2585;48.696;10.066;2022-08-01T10:09:28;2.27;;;2.07;;
5133;SDS011;2585;48.696;10.066;2022-08-01T10:12:05;4.10;;;2.67;;
5133;SDS011;2585;48.696;10.066;2022-08-01T10:14:34;2.40;;;2.13;;
5133;SDS011;2585;48.696;10.066;2022-08-01T10:17:02;2.50;;;1.83;;
5133;SDS011;2585;48.696;10.066;2022-08-01T10:19:30;2.67;;;2.20;;
5133;SDS011;2585;48.696;10.066;2022-08-01T10:21:58;2.10;;;1.90;;
5133;SDS011;2585;48.696;10.066;2022-08-01T10:24:28;4.60;;;2.40;;
5133;SDS011;2585;48.696;10.066;2022-08-01T10:27:01;2.37;;;2.10;;
5133;SDS011;2585;48.696;10.066;2022-08-01T10:29:36;4.77;;;2.30;;
5133;SDS011;2585;48.696;10.066;2022-08-01T10:32:12;2.87;;;2.37;;
5133;SDS011;2585;48.696;10.066;2022-08-01T10:34:39;3.83;;;2.23;;
5133;SDS011;2585;48.696;10.066;2022-08-01T10:37:10;7.60;;;2.33;;
5133;SDS011;2585;48.696;10.066;2022-08-01T10:39:40;2.47;;;2.20;;
5133;SDS011;2585;48.696;10.066;2022-08-01T10:42:09;3.23;;;2.30;;
5133;SDS011;2585;48.696;10.066;2022-08-01T10:44:41;4.43;;;2.50;;
5133;SDS011;2585;48.696;10.066;2022-08-01T10:47:10;3.33;;;2.57;;
5133;SDS011;2585;48.696;10.066;2022-08-01T10:49:47;2.40;;;2.20;;
5133;SDS011;2585;48.696;10.066;2022-08-01T10:52:20;3.70;;;2.30;;
5133;SDS011;2585;48.696;10.066;2022-08-01T10:54:47;2.53;;;2.27;;
5133;SDS011;2585;48.696;10.066;2022-08-01T10:57:18;2.20;;;2.00;;
5133;SDS011;2585;48.696;10.066;2022-08-01T10:59:51;3.43;;;2.20;;
5133;SDS011;2585;48.696;10.066;2022-08-01T11:02:31;2.20;;;2.00;;
5133;SDS011;2585;48.696;10.066;2022-08-01T11:05:10;2.90;;;2.40;;
5133;SDS011;2585;48.696;10.066;2022-08-01T11:07:51;2.80;;;2.00;;
5133;SDS011;2585;48.696;10.066;2022-08-01T11:10:41;2.13;;;1.93;;
5133;SDS011;2585;48.696;10.066;2022-08-01T11:13:10;4.23;;;2.50;;
5133;SDS011;2585;48.696;10.066;2022-08-01T11:15:39;4.77;;;2.13;;
5133;SDS011;2585;48.696;10.066;2022-08-01T11:20:57;3.13;;;2.10;;
5133;SDS011;2585;48.696;10.066;2022-08-01T11:23:49;2.60;;;2.17;;
5133;SDS011;2585;48.696;10.066;2022-08-01T11:26:20;2.40;;;2.20;;
5133;SDS011;2585;48.696;10.066;2022-08-01T11:29:11;3.40;;;2.63;;
5133;SDS011;2585;48.696;10.066;2022-08-01T11:31:46;2.73;;;2.20;;
5133;SDS011;2585;48.696;10.066;2022-08-01T11:34:13;3.50;;;2.83;;
5133;SDS011;2585;48.696;10.066;2022-08-01T11:36:40;3.03;;;2.83;;
5133;SDS011;2585;48.696;10.066;2022-08-01T11:39:25;3.50;;;2.70;;
5133;SDS011;2585;48.696;10.066;2022-08-01T11:41:52;2.83;;;2.50;;
5133;SDS011;2585;48.696;10.066;2022-08-01T11:44:21;3.67;;;2.70;;
5133;SDS011;2585;48.696;10.066;2022-08-01T11:47:06;4.23;;;3.27;;
5133;SDS011;2585;48.696;10.066;2022-08-01T11:57:25;2.83;;;2.47;;
5133;SDS011;2585;48.696;10.066;2022-08-01T12:00:00;3.60;;;3.17;;
5133;SDS011;2585;48.696;10.066;2022-08-01T12:02:33;3.60;;;2.83;;
5133;SDS011;2585;48.696;10.066;2022-08-01T12:05:02;5.10;;;3.00;;
5133;SDS011;2585;48.696;10.066;2022-08-01T12:07:38;3.27;;;2.90;;
5133;SDS011;2585;48.696;10.066;2022-08-01T12:10:08;3.20;;;2.80;;
5133;SDS011;2585;48.696;10.066;2022-08-01T12:12:43;2.90;;;2.60;;
5133;SDS011;2585;48.696;10.066;2022-08-01T12:15:15;3.10;;;2.90;;
5133;SDS011;2585;48.696;10.066;2022-08-01T12:20:24;3.70;;;2.80;;
5133;SDS011;2585;48.696;10.066;2022-08-01T12:22:56;3.37;;;3.07;;
5133;SDS011;2585;48.696;10.066;2022-08-01T12:25:25;3.70;;;3.17;;
5133;SDS011;2585;48.696;10.066;2022-08-01T12:27:52;3.67;;;2.83;;
5133;SDS011;2585;48.696;10.066;2022-08-01T12:30:22;3.93;;;3.10;;
5133;SDS011;2585;48.696;10.066;2022-08-01T12:32:50;5.90;;;3.70;;
5133;SDS011;2585;48.696;10.066;2022-08-01T12:35:20;3.63;;;2.70;;
5133;SDS011;2585;48.696;10.066;2022-08-01T12:37:57;4.13;;;2.67;;
5133;SDS011;2585;48.696;10.066;2022-08-01T12:40:25;5.57;;;3.37;;
5133;SDS011;2585;48.696;10.066;2022-08-01T12:42:56;3.57;;;3.10;;
5133;SDS011;2585;48.696;10.066;2022-08-01T12:45:33;3.20;;;2.90;;
5133;SDS011;2585;48.696;10.066;2022-08-01T12:48:22;5.40;;;3.27;;
5133;SDS011;2585;48.696;10.066;2022-08-01T12:50:49;3.80;;;3.37;;
5133;SDS011;2585;48.696;10.066;2022-08-01T12:53:19;3.57;;;3.10;;
5133;SDS011;2585;48.696;10.066;2022-08-01T12:55:51;3.90;;;3.23;;
5133;SDS011;2585;48.696;10.066;2022-08-01T12:58:30;3.77;;;3.30;;
5133;SDS011;2585;48.696;10.066;2022-08-01T13:01:02;4.00;;;2.83;;
5133;SDS011;2585;48.696;10.066;2022-08-01T13:03:33;3.03;;;2.73;;
5133;SDS011;2585;48.696;10.066;2022-08-01T13:06:00;3.83;;;3.00;;
5133;SDS011;2585;48.696;10.066;2022-08-01T13:08:31;3.07;;;2.80;;
5133;SDS011;2585;48.696;10.066;2022-08-01T13:11:03;4.00;;;2.90;;
5133;SDS011;2585;48.696;10.066;2022-08-01T13:13:39;2.90;;;2.50;;
5133;SDS011;2585;48.696;10.066;2022-08-01T13:16:08;3.23;;;2.93;;
5133;SDS011;2585;48.696;10.066;2022-08-01T13:18:41;3.50;;;2.40;;
5133;SDS011;2585;48.696;10.066;2022-08-01T13:21:16;5.37;;;2.50;;
5133;SDS011;2585;48.696;10.066;2022-08-01T13:26:41;3.30;;;3.00;;
5133;SDS011;2585;48.696;10.066;2022-08-01T13:29:08;2.77;;;2.57;;
5133;SDS011;2585;48.696;10.066;2022-08-01T13:31:37;3.87;;;2.93;;
5133;SDS011;2585;48.696;10.066;2022-08-01T13:34:05;7.10;;;2.57;;
5133;SDS011;2585;48.696;10.066;2022-08-01T13:36:32;4.30;;;2.87;;
5133;SDS011;2585;48.696;10.066;2022-08-01T13:39:00;5.13;;;2.60;;
5133;SDS011;2585;48.696;10.066;2022-08-01T13:41:46;4.90;;;2.33;;
5133;SDS011;2585;48.696;10.066;2022-08-01T13:44:13;2.70;;;2.40;;
5133;SDS011;2585;48.696;10.066;2022-08-01T13:46:41;3.07;;;2.77;;
5133;SDS011;2585;48.696;10.066;2022-08-01T13:49:16;3.63;;;2.77;;
5133;SDS011;2585;48.696;10.066;2022-08-01T13:51:44;3.60;;;2.93;;
5133;SDS011;2585;48.696;10.066;2022-08-01T13:54:12;3.80;;;2.87;;
5133;SDS011;2585;48.696;10.066;2022-08-01T13:56:39;4.00;;;3.00;;
5133;SDS011;2585;48.696;10.066;2022-08-01T13:59:06;3.90;;;2.93;;
5133;SDS011;2585;48.696;10.066;2022-08-01T14:01:34;3.87;;;2.27;;
5133;SDS011;2585;48.696;10.066;2022-08-01T14:04:01;3.10;;;2.23;;
5133;SDS011;2585;48.696;10.066;2022-08-01T14:06:28;3.40;;;2.53;;
5133;SDS011;2585;48.696;10.066;2022-08-01T14:08:55;4.13;;;2.53;;
5133;SDS011;2585;48.696;10.066;2022-08-01T14:11:23;3.30;;;2.93;;
5133;SDS011;2585;48.696;10.066;2022-08-01T14:13:53;3.17;;;2.87;;
5133;SDS011;2585;48.696;10.066;2022-08-01T14:16:20;5.90;;;3.27;;
5133;SDS011;2585;48.696;10.066;2022-08-01T14:18:47;4.23;;;2.80;;
5133;SDS011;2585;48.696;10.066;2022-08-01T14:21:14;5.53;;;3.63;;
5133;SDS011;2585;48.696;10.066;2022-08-01T14:23:41;3.63;;;3.10;;
5133;SDS011;2585;48.696;10.066;2022-08-01T14:26:11;8.23;;;3.30;;
5133;SDS011;2585;48.696;10.066;2022-08-01T14:28:38;4.33;;;2.87;;
5133;SDS011;2585;48.696;10.066;2022-08-01T14:31:05;4.73;;;2.70;;
5133;SDS011;2585;48.696;10.066;2022-08-01T14:33:32;3.10;;;2.70;;
5133;SDS011;2585;48.696;10.066;2022-08-01T14:36:00;3.60;;;2.83;;
5133;SDS011;2585;48.696;10.066;2022-08-01T14:38:47;2.70;;;2.03;;
5133;SDS011;2585;48.696;10.066;2022-08-01T14:41:14;4.57;;;2.13;;
5133;SDS011;2585;48.696;10.066;2022-08-01T14:43:41;3.20;;;2.23;;
5133;SDS011;2585;48.696;10.066;2022-08-01T14:46:09;2.67;;;2.00;;
5133;SDS011;2585;48.696;10.066;2022-08-01T14:48:36;7.50;;;2.00;;
5133;SDS011;2585;48.696;10.066;2022-08-01T14:51:03;2.60;;;2.33;;
5133;SDS011;2585;48.696;10.066;2022-08-01T14:53:30;6.97;;;2.20;;
5133;SDS011;2585;48.696;10.066;2022-08-01T14:56:04;2.30;;;2.10;;
5133;SDS011;2585;48.696;10.066;2022-08-01T14:58:31;3.87;;;2.30;;
5133;SDS011;2585;48.696;10.066;2022-08-01T15:00:58;2.20;;;2.00;;
5133;SDS011;2585;48.696;10.066;2022-08-01T15:03:25;4.53;;;1.97;;
5133;SDS011;2585;48.696;10.066;2022-08-01T15:05:52;2.90;;;2.50;;
5133;SDS011;2585;48.696;10.066;2022-08-01T15:08:19;2.43;;;1.80;;
5133;SDS011;2585;48.696;10.066;2022-08-01T15:10:46;2.90;;;1.90;;
5133;SDS011;2585;48.696;10.066;2022-08-01T15:13:13;3.57;;;2.13;;
5133;SDS011;2585;48.696;10.066;2022-08-01T15:15:40;2.07;;;1.77;;
5133;SDS011;2585;48.696;10.066;2022-08-01T15:18:06;2.50;;;1.73;;
5133;SDS011;2585;48.696;10.066;2022-08-01T15:20:33;2.07;;;1.70;;
5133;SDS011;2585;48.696;10.066;2022-08-01T15:23:00;2.50;;;1.77;;
5133;SDS011;2585;48.696;10.066;2022-08-01T15:25:27;2.73;;;2.10;;
5133;SDS011;2585;48.696;10.066;2022-08-01T15:28:07;2.90;;;1.73;;
5133;SDS011;2585;48.696;10.066;2022-08-01T15:30:35;1.80;;;1.70;;
5133;SDS011;2585;48.696;10.066;2022-08-01T15:33:02;2.03;;;1.90;;
5133;SDS011;2585;48.696;10.066;2022-08-01T15:35:29;2.03;;;1.83;;
5133;SDS011;2585;48.696;10.066;2022-08-01T15:37:56;3.30;;;1.67;;
5133;SDS011;2585;48.696;10.066;2022-08-01T15:40:23;4.00;;;2.20;;
5133;SDS011;2585;48.696;10.066;2022-08-01T15:42:50;2.80;;;1.90;;
5133;SDS011;2585;48.696;10.066;2022-08-01T15:45:18;4.00;;;1.97;;
5133;SDS011;2585;48.696;10.066;2022-08-01T15:48:07;1.70;;;1.60;;